Lone Jack, MO (64070)

6:15 PM CST on March 01, 2015 (GMT -0600)
Lone Jack rural residence | Change Station
CLOSE
Current Station
Personal Weather Station
Location: Lone Jack, MO
Elevation: 1020 ft
Nearby Weather Stations

Elev 1020 ft 38.85 °N, 94.18 °W | Updated 4 seconds ago

Mostly Cloudy
Mostly Cloudy
29.8 °F
Feels Like 30 °F
N
0.0
Wind Variable Wind from NW
Gusts 0.0 mph

Today
High -- | Low -- °F
--% Chance of Precip.
Yesterday
High -- | Low -- °F
Precip. -- in
6:49 AM 6:09 PM
Waxing Gibbous, 88% visible
Pressure 30.43 in
Visibility 10.0 miles
Clouds Scattered Clouds 2900 ft
Windchill 30 °F
Dew Point 19 °F
Humidity 63%
Rainfall 0.05 in
Snow Depth Not available.
UV 0 out of 12
Pollen .50 out of 12
Air Quality Not available.
Flu Activity Not available.
METAR KLXT 012353Z AUTO 33005KT 10SM SCT029 M01/M06 A3039 RMK AO2 SLP304 T10061061 10006 21017 53005

More Conditions Fewer Conditions

Pressure 30.43 in
Visibility 10.0 miles
Clouds Scattered Clouds 2900 ft
Windchill 30 °F
Dew Point 19 °F
Humidity 63%
Rainfall 0.05 in
Snow Depth Not available.
UV 0 out of 12
Pollen .50 out of 12
Air Quality Not available.
Flu Activity Not available.
METAR KLXT 012353Z AUTO 33005KT 10SM SCT029 M01/M06 A3039 RMK AO2 SLP304 T10061061 10006 21017 53005

More Conditions Fewer Conditions

10-Day Weather Forecast

Almanac

Astronomy

Mar. 01, 2015 Rise Set
Actual Time
Civil Twilight
Nautical Twilight
Astronomical Twilight
Moon
Length of Visible Light
Length of Day
Tomorrow will be .
, % of the Moon is Illuminated

Today's Extremes

State Highs State Lows

Community

WunderPhotos

Upload Photos

1,801,642 photos uploaded!

WunderBlogs® & News

Nearby

Air Quality

  Air Quality AQ Index Pollutant
Not available.

Snow Depth

Station Depth Elevation

Earthquake Activity

City Distance Mag. Time & Date
Minimum magnitude displayed is 2.5.

Coastal Water Temperatures

Place Temperature

Nearby Weather Stations